createdAt,value
2018-02-05T00:00:01.084Z,970.80
2018-02-05T00:01:01.185Z,970.72
2018-02-05T00:02:01.165Z,970.70
2018-02-05T00:03:01.205Z,970.74
2018-02-05T00:04:01.258Z,970.71
2018-02-05T00:05:01.283Z,970.68
2018-02-05T00:06:01.338Z,970.71
2018-02-05T00:07:01.362Z,970.71
2018-02-05T00:08:01.400Z,970.66
2018-02-05T00:09:01.440Z,970.68
2018-02-05T00:10:01.479Z,970.66
2018-02-05T00:11:01.541Z,970.67
2018-02-05T00:12:01.560Z,970.67
2018-02-05T00:13:01.599Z,970.65
2018-02-05T00:14:01.643Z,970.66
2018-02-05T00:15:01.678Z,970.68
2018-02-05T00:16:01.739Z,970.69
2018-02-05T00:17:01.757Z,970.65
2018-02-05T00:18:01.794Z,970.69
2018-02-05T00:19:01.833Z,970.70
2018-02-05T00:20:01.875Z,970.72
2018-02-05T00:21:01.942Z,970.74
2018-02-05T00:22:01.954Z,970.75
2018-02-05T00:23:01.993Z,970.77
2018-02-05T00:24:02.033Z,970.74
2018-02-05T00:25:02.077Z,970.79
2018-02-05T00:26:02.134Z,970.75
2018-02-05T00:27:02.151Z,970.75
2018-02-05T00:28:02.197Z,970.78
2018-02-05T00:29:02.230Z,970.74
2018-02-05T00:30:02.272Z,970.69
2018-02-05T00:31:02.328Z,970.70
2018-02-05T00:32:02.349Z,970.74
2018-02-05T00:33:02.388Z,970.72
2018-02-05T00:34:02.432Z,970.73
2018-02-05T00:35:02.468Z,970.76
2018-02-05T00:36:02.526Z,970.77
2018-02-05T00:37:02.548Z,970.77
2018-02-05T00:38:02.588Z,970.73
2018-02-05T00:39:02.626Z,970.75
2018-02-05T00:40:02.676Z,970.78
2018-02-05T00:41:02.722Z,970.77
2018-02-05T00:42:02.749Z,970.75
2018-02-05T00:43:02.785Z,970.78
2018-02-05T00:44:02.862Z,970.76
2018-02-05T00:45:02.868Z,970.81
2018-02-05T00:46:02.910Z,970.82
2018-02-05T00:47:02.945Z,970.80
2018-02-05T00:48:02.984Z,970.82
2018-02-05T00:49:03.039Z,970.81
2018-02-05T00:50:03.069Z,970.78
2018-02-05T00:51:03.105Z,970.77
2018-02-05T00:52:03.147Z,970.80
2018-02-05T00:53:03.197Z,970.85
2018-02-05T00:54:03.223Z,970.82
2018-02-05T00:55:03.262Z,970.82
2018-02-05T00:56:03.303Z,970.84
2018-02-05T00:57:03.341Z,970.84
2018-02-05T00:58:03.393Z,970.84
2018-02-05T00:59:03.419Z,970.82
2018-02-05T01:00:03.460Z,970.84
2018-02-05T01:01:03.500Z,970.90
2018-02-05T01:02:03.539Z,970.93
2018-02-05T01:03:03.593Z,970.91
2018-02-05T01:04:03.626Z,970.95
2018-02-05T01:05:03.660Z,970.95
2018-02-05T01:06:03.699Z,970.98
2018-02-05T01:07:03.740Z,971.01
2018-02-05T01:08:03.829Z,971.00
2018-02-05T01:09:03.818Z,970.98
2018-02-05T01:10:03.859Z,971.03
2018-02-05T01:11:03.897Z,971.02
2018-02-05T01:12:03.942Z,971.03
2018-02-05T01:13:04.017Z,971.02
2018-02-05T01:14:04.018Z,971.06
2018-02-05T01:15:04.063Z,971.03
2018-02-05T01:16:04.096Z,971.05
2018-02-05T01:17:04.138Z,971.04
2018-02-05T01:18:04.191Z,971.02
2018-02-05T01:19:04.216Z,971.05
2018-02-05T01:20:04.256Z,971.05
2018-02-05T01:21:04.296Z,971.03
2018-02-05T01:22:04.356Z,971.07
2018-02-05T01:23:04.375Z,971.03
2018-02-05T01:24:04.432Z,971.03
2018-02-05T01:25:04.458Z,971.05
2018-02-05T01:26:04.495Z,971.12
2018-02-05T01:27:04.536Z,971.14
2018-02-05T01:28:04.590Z,971.14
2018-02-05T01:29:04.631Z,971.08
2018-02-05T01:30:04.654Z,971.09
2018-02-05T01:31:04.697Z,971.08
2018-02-05T01:32:04.731Z,971.10
2018-02-05T01:33:04.774Z,971.12
2018-02-05T01:34:04.830Z,971.11
2018-02-05T01:35:04.852Z,971.06
2018-02-05T01:36:04.891Z,971.11
2018-02-05T01:37:04.932Z,971.13
2018-02-05T01:38:04.972Z,971.09
2018-02-05T01:39:05.029Z,971.12
2018-02-05T01:40:05.060Z,971.10
2018-02-05T01:41:05.089Z,971.08
2018-02-05T01:42:05.129Z,971.14
2018-02-05T01:43:05.170Z,971.11
2018-02-05T01:44:05.224Z,971.06
2018-02-05T01:45:05.252Z,971.09
2018-02-05T01:46:05.289Z,971.04
2018-02-05T01:47:05.336Z,971.07
2018-02-05T01:48:05.368Z,971.06
2018-02-05T01:49:05.432Z,971.07
2018-02-05T01:50:05.448Z,971.05
2018-02-05T01:51:05.489Z,971.09
2018-02-05T01:52:05.528Z,971.07
2018-02-05T01:53:05.570Z,971.11
2018-02-05T01:54:05.623Z,971.09
2018-02-05T01:55:05.646Z,971.09
2018-02-05T01:56:05.712Z,971.10
2018-02-05T01:57:05.730Z,971.07
2018-02-05T01:58:05.768Z,971.09
2018-02-05T01:59:05.805Z,971.06
2018-02-05T02:00:05.848Z,971.13
2018-02-05T02:01:06.026Z,971.08
2018-02-05T02:02:05.927Z,971.11
2018-02-05T02:03:05.965Z,971.12
2018-02-05T02:04:06.010Z,971.12
2018-02-05T02:05:06.052Z,971.10
2018-02-05T02:06:06.105Z,971.06
2018-02-05T02:07:06.142Z,971.08
2018-02-05T02:08:06.166Z,971.05
2018-02-05T02:09:06.205Z,971.01
2018-02-05T02:10:06.246Z,971.05
2018-02-05T02:11:06.284Z,970.99
2018-02-05T02:12:06.342Z,971.00
2018-02-05T02:13:06.365Z,970.98
2018-02-05T02:14:06.406Z,971.01
2018-02-05T02:15:06.446Z,971.03
2018-02-05T02:16:06.485Z,971.01
2018-02-05T02:17:06.546Z,971.04
2018-02-05T02:18:06.564Z,971.01
2018-02-05T02:19:06.605Z,971.03
2018-02-05T02:20:06.643Z,971.04
2018-02-05T02:21:06.682Z,971.03
2018-02-05T02:22:06.740Z,971.02
2018-02-05T02:23:06.782Z,971.05
2018-02-05T02:24:06.808Z,971.06
2018-02-05T02:25:06.842Z,971.05
2018-02-05T02:26:06.882Z,971.05
2018-02-05T02:27:06.923Z,971.03
2018-02-05T02:28:06.977Z,971.04
2018-02-05T02:29:07.008Z,970.98
2018-02-05T02:30:07.091Z,971.04
2018-02-05T02:31:07.088Z,970.96
2018-02-05T02:32:07.122Z,971.02
2018-02-05T02:33:07.179Z,971.00
2018-02-05T02:34:07.203Z,970.99
2018-02-05T02:35:07.241Z,971.02
2018-02-05T02:36:07.280Z,970.99
2018-02-05T02:37:07.320Z,970.99
2018-02-05T02:38:07.382Z,970.96
2018-02-05T02:39:07.398Z,970.98
2018-02-05T02:40:07.435Z,970.98
2018-02-05T02:41:07.481Z,971.00
2018-02-05T02:42:07.519Z,970.93
2018-02-05T02:43:07.576Z,970.99
2018-02-05T02:44:07.616Z,971.01
2018-02-05T02:45:07.638Z,970.96
2018-02-05T02:46:07.677Z,970.98
2018-02-05T02:47:07.717Z,971.01
2018-02-05T02:48:07.768Z,971.02
2018-02-05T02:49:07.822Z,971.04
2018-02-05T02:50:07.835Z,971.08
2018-02-05T02:51:07.876Z,971.05
2018-02-05T02:52:07.916Z,971.09
2018-02-05T02:53:07.954Z,971.11
2018-02-05T02:54:08.020Z,971.13
2018-02-05T02:55:08.040Z,971.14
2018-02-05T02:56:08.074Z,971.13
2018-02-05T02:57:08.116Z,971.12
2018-02-05T02:58:08.155Z,971.09
2018-02-05T02:59:08.210Z,971.09
2018-02-05T03:00:08.231Z,971.12
2018-02-05T03:01:08.272Z,971.12
2018-02-05T03:02:08.313Z,971.15
2018-02-05T03:03:08.367Z,971.09
2018-02-05T03:04:08.391Z,971.13
2018-02-05T03:05:09.186Z,971.13
2018-02-05T03:06:08.470Z,971.17
2018-02-05T03:07:08.510Z,971.20
2018-02-05T03:08:08.566Z,971.17
2018-02-05T03:09:08.586Z,971.17
2018-02-05T03:10:08.642Z,971.20
2018-02-05T03:11:08.666Z,971.16
2018-02-05T03:12:08.707Z,971.17
2018-02-05T03:13:08.752Z,971.14
2018-02-05T03:14:08.787Z,971.16
2018-02-05T03:15:08.848Z,971.13
2018-02-05T03:16:08.864Z,971.13
2018-02-05T03:17:08.910Z,971.17
2018-02-05T03:18:08.941Z,971.17
2018-02-05T03:19:08.979Z,971.18
2018-02-05T03:20:09.034Z,971.16
2018-02-05T03:21:09.076Z,971.16
2018-02-05T03:22:09.105Z,971.21
2018-02-05T03:23:09.137Z,971.22
2018-02-05T03:24:09.175Z,971.24
2018-02-05T03:25:09.217Z,971.23
2018-02-05T03:26:09.271Z,971.27
2018-02-05T03:27:09.293Z,971.26
2018-02-05T03:28:09.347Z,971.26
2018-02-05T03:29:09.371Z,971.30
2018-02-05T03:30:09.413Z,971.30
2018-02-05T03:31:09.450Z,971.28
2018-02-05T03:32:09.491Z,971.29
2018-02-05T03:33:09.546Z,971.25
2018-02-05T03:34:09.568Z,971.25
2018-02-05T03:35:09.606Z,971.25
2018-02-05T03:36:09.645Z,971.25
2018-02-05T03:37:09.686Z,971.26
2018-02-05T03:38:09.747Z,971.29
2018-02-05T03:39:09.763Z,971.29
2018-02-05T03:40:09.801Z,971.29
2018-02-05T03:41:09.840Z,971.26
2018-02-05T03:42:09.881Z,971.33
2018-02-05T03:43:09.937Z,971.30
2018-02-05T03:44:09.959Z,971.24
2018-02-05T03:45:09.997Z,971.29
2018-02-05T03:46:10.038Z,971.28
2018-02-05T03:47:10.076Z,971.29
2018-02-05T03:48:10.138Z,971.31
2018-02-05T03:49:10.161Z,971.31
2018-02-05T03:50:10.193Z,971.31
2018-02-05T03:51:10.231Z,971.28
2018-02-05T03:52:10.275Z,971.28
2018-02-05T03:53:10.330Z,971.30
2018-02-05T03:54:10.351Z,971.31
2018-02-05T03:55:10.387Z,971.34
2018-02-05T03:56:10.426Z,971.36
2018-02-05T03:57:10.465Z,971.33
2018-02-05T03:58:10.523Z,971.35
2018-02-05T03:59:10.560Z,971.33
2018-02-05T04:00:10.585Z,971.32
2018-02-05T04:01:10.622Z,971.28
2018-02-05T04:02:10.667Z,971.28
2018-02-05T04:03:10.699Z,971.27
2018-02-05T04:04:10.756Z,971.26
2018-02-05T04:05:10.800Z,971.29
2018-02-05T04:06:10.821Z,971.26
2018-02-05T04:07:10.858Z,971.29
2018-02-05T04:08:10.896Z,971.34
2018-02-05T04:09:10.935Z,971.35
2018-02-05T04:10:10.999Z,971.34
2018-02-05T04:11:11.012Z,971.35
2018-02-05T04:12:11.055Z,971.38
2018-02-05T04:13:11.092Z,971.38
2018-02-05T04:14:11.136Z,971.35
2018-02-05T04:15:11.184Z,971.37
2018-02-05T04:16:11.226Z,971.31
2018-02-05T04:17:11.246Z,971.32
2018-02-05T04:18:11.288Z,971.33
2018-02-05T04:19:11.332Z,971.38
2018-02-05T04:20:11.364Z,971.38
2018-02-05T04:21:11.423Z,971.37
2018-02-05T04:22:11.441Z,971.39
2018-02-05T04:23:11.479Z,971.38
2018-02-05T04:24:11.520Z,971.40
2018-02-05T04:25:11.558Z,971.44
2018-02-05T04:26:11.617Z,971.42
2018-02-05T04:27:11.637Z,971.41
2018-02-05T04:28:11.674Z,971.39
2018-02-05T04:29:12.481Z,971.40
2018-02-05T04:30:11.751Z,971.36
2018-02-05T04:31:11.811Z,971.40
2018-02-05T04:32:11.831Z,971.40
2018-02-05T04:33:11.867Z,971.37
2018-02-05T04:34:11.910Z,971.37
2018-02-05T04:35:11.947Z,971.38
2018-02-05T04:36:12.001Z,971.37
2018-02-05T04:37:12.025Z,971.37
2018-02-05T04:38:12.062Z,971.41
2018-02-05T04:39:12.102Z,971.38
2018-02-05T04:40:12.141Z,971.42
2018-02-05T04:41:12.193Z,971.45
2018-02-05T04:42:12.236Z,971.41
2018-02-05T04:43:12.254Z,971.46
2018-02-05T04:44:12.294Z,971.45
2018-02-05T04:45:12.335Z,971.46
2018-02-05T04:46:12.378Z,971.48
2018-02-05T04:47:12.425Z,971.45
2018-02-05T04:48:12.451Z,971.46
2018-02-05T04:49:12.488Z,971.45
2018-02-05T04:50:12.525Z,971.42
2018-02-05T04:51:12.563Z,971.42
2018-02-05T04:52:12.676Z,971.42
2018-02-05T04:53:12.643Z,971.44
2018-02-05T04:54:12.679Z,971.41
2018-02-05T04:55:12.742Z,971.44
2018-02-05T04:56:12.756Z,971.42
2018-02-05T04:57:12.813Z,971.43
2018-02-05T04:58:12.835Z,971.45
2018-02-05T04:59:12.888Z,971.47
2018-02-05T05:00:12.912Z,971.48
2018-02-05T05:01:12.950Z,971.52
2018-02-05T05:02:12.988Z,971.49
2018-02-05T05:03:13.041Z,971.53
2018-02-05T05:04:13.079Z,971.54
2018-02-05T05:05:13.105Z,971.51
2018-02-05T05:06:13.143Z,971.50
2018-02-05T05:07:13.182Z,971.52
2018-02-05T05:08:13.978Z,971.53
2018-02-05T05:09:13.278Z,971.55
2018-02-05T05:10:13.295Z,971.53
2018-02-05T05:11:13.335Z,971.59
2018-02-05T05:12:13.371Z,971.58
2018-02-05T05:13:13.415Z,971.64
2018-02-05T05:14:13.464Z,971.64
2018-02-05T05:15:13.503Z,971.66
2018-02-05T05:16:13.525Z,971.60
2018-02-05T05:17:13.564Z,971.68
2018-02-05T05:18:13.607Z,971.66
2018-02-05T05:19:13.640Z,971.66
2018-02-05T05:20:13.698Z,971.68
2018-02-05T05:21:13.717Z,971.65
2018-02-05T05:22:13.764Z,971.69
2018-02-05T05:23:13.796Z,971.67
2018-02-05T05:24:13.833Z,971.65
2018-02-05T05:25:13.890Z,971.69
2018-02-05T05:26:13.913Z,971.72
2018-02-05T05:27:13.948Z,971.72
2018-02-05T05:28:13.990Z,971.75
2018-02-05T05:29:14.028Z,971.77
2018-02-05T05:30:14.081Z,971.77
2018-02-05T05:31:14.121Z,971.79
2018-02-05T05:32:14.140Z,971.81
2018-02-05T05:33:14.182Z,971.85
2018-02-05T05:34:14.218Z,971.80
2018-02-05T05:35:14.256Z,971.83
2018-02-05T05:36:14.317Z,971.82
2018-02-05T05:37:14.333Z,971.86
2018-02-05T05:38:14.389Z,971.87
2018-02-05T05:39:14.416Z,971.86
2018-02-05T05:40:14.449Z,971.88
2018-02-05T05:41:14.488Z,971.81
2018-02-05T05:42:14.526Z,971.88
2018-02-05T05:43:14.583Z,971.88
2018-02-05T05:44:14.602Z,971.82
2018-02-05T05:45:14.642Z,971.81
2018-02-05T05:46:14.682Z,971.84
2018-02-05T05:47:14.717Z,971.84
2018-02-05T05:48:14.772Z,971.83
2018-02-05T05:49:14.794Z,971.85
2018-02-05T05:50:14.835Z,971.82
2018-02-05T05:51:14.871Z,971.85
2018-02-05T05:52:14.918Z,971.83
2018-02-05T05:53:14.968Z,971.81
2018-02-05T05:54:14.987Z,971.89
2018-02-05T05:55:15.026Z,971.81
2018-02-05T05:56:15.065Z,971.80
2018-02-05T05:57:15.099Z,971.81
2018-02-05T05:58:15.162Z,971.79
2018-02-05T05:59:15.193Z,971.75
2018-02-05T06:00:15.220Z,971.80
2018-02-05T06:01:15.257Z,971.78
2018-02-05T06:02:15.295Z,971.77
2018-02-05T06:03:15.334Z,971.72
2018-02-05T06:04:15.396Z,971.77
2018-02-05T06:05:15.455Z,971.76
2018-02-05T06:06:15.452Z,971.81
2018-02-05T06:07:15.486Z,971.75
2018-02-05T06:08:15.524Z,971.75
2018-02-05T06:09:15.564Z,971.80
2018-02-05T06:10:15.617Z,971.79
2018-02-05T06:11:15.640Z,971.80
2018-02-05T06:12:15.681Z,971.79
2018-02-05T06:13:15.717Z,971.89
2018-02-05T06:14:15.758Z,971.89
2018-02-05T06:15:15.810Z,971.93
2018-02-05T06:16:15.832Z,971.90
2018-02-05T06:17:15.872Z,971.91
2018-02-05T06:18:15.912Z,971.93
2018-02-05T06:19:15.946Z,971.92
2018-02-05T06:20:16.015Z,971.97
2018-02-05T06:21:16.024Z,971.91
2018-02-05T06:22:16.064Z,971.95
2018-02-05T06:23:16.102Z,971.94
2018-02-05T06:24:16.139Z,971.90
2018-02-05T06:25:16.195Z,971.93
2018-02-05T06:26:16.219Z,971.92
2018-02-05T06:27:16.274Z,971.92
2018-02-05T06:28:16.297Z,971.94
2018-02-05T06:29:16.331Z,971.98
2018-02-05T06:30:16.369Z,971.98
2018-02-05T06:31:16.421Z,971.98
2018-02-05T06:32:16.462Z,972.00
2018-02-05T06:33:16.483Z,972.00
2018-02-05T06:34:16.522Z,972.06
2018-02-05T06:35:16.559Z,971.99
2018-02-05T06:36:16.598Z,972.02
2018-02-05T06:37:16.656Z,972.03
2018-02-05T06:38:16.676Z,972.00
2018-02-05T06:39:16.715Z,972.00
2018-02-05T06:40:16.763Z,972.01
2018-02-05T06:41:16.798Z,972.00
2018-02-05T06:42:16.843Z,972.06
2018-02-05T06:43:16.885Z,972.03
2018-02-05T06:44:16.934Z,972.06
2018-02-05T06:45:16.943Z,972.05
2018-02-05T06:46:16.981Z,972.08
2018-02-05T06:47:17.021Z,972.11
2018-02-05T06:48:17.075Z,972.07
2018-02-05T06:49:17.095Z,972.09
2018-02-05T06:50:17.134Z,972.12
2018-02-05T06:51:17.175Z,972.12
2018-02-05T06:52:17.210Z,972.10
2018-02-05T06:53:17.271Z,972.08
2018-02-05T06:54:17.287Z,972.11
2018-02-05T06:55:17.325Z,972.13
2018-02-05T06:56:17.365Z,972.17
2018-02-05T06:57:17.402Z,972.21
2018-02-05T06:58:17.456Z,972.23
2018-02-05T06:59:17.483Z,972.21
2018-02-05T07:00:17.535Z,972.19
2018-02-05T07:01:17.557Z,972.20
2018-02-05T07:02:17.596Z,972.22
2018-02-05T07:03:17.635Z,972.24
2018-02-05T07:04:17.676Z,972.19
2018-02-05T07:05:17.729Z,972.23
2018-02-05T07:06:17.747Z,972.18
2018-02-05T07:07:17.785Z,972.18
2018-02-05T07:08:17.827Z,972.20
2018-02-05T07:09:17.862Z,972.17
2018-02-05T07:10:17.923Z,972.14
2018-02-05T07:11:17.940Z,972.21
2018-02-05T07:12:17.977Z,972.16
2018-02-05T07:13:18.018Z,972.20
2018-02-05T07:14:18.055Z,972.20
2018-02-05T07:15:18.113Z,972.22
2018-02-05T07:16:18.132Z,972.20
2018-02-05T07:17:18.178Z,972.18
2018-02-05T07:18:18.211Z,972.22
2018-02-05T07:19:18.248Z,972.19
2018-02-05T07:20:18.305Z,972.17
2018-02-05T07:21:18.325Z,972.15
2018-02-05T07:22:18.364Z,972.13
2018-02-05T07:23:18.402Z,972.10
2018-02-05T07:24:18.445Z,972.06
2018-02-05T07:25:18.495Z,972.03
2018-02-05T07:26:18.546Z,972.08
2018-02-05T07:27:18.558Z,972.04
2018-02-05T07:28:18.596Z,972.07
2018-02-05T07:29:18.637Z,972.09
2018-02-05T07:30:18.678Z,972.04
2018-02-05T07:31:18.729Z,972.05
2018-02-05T07:32:18.751Z,972.06
2018-02-05T07:33:18.809Z,971.99
2018-02-05T07:34:18.832Z,971.97
2018-02-05T07:35:18.869Z,971.94
2018-02-05T07:36:18.912Z,971.97
2018-02-05T07:37:18.947Z,971.94
2018-02-05T07:38:19.002Z,971.99
2018-02-05T07:39:19.024Z,971.97
2018-02-05T07:40:19.065Z,972.02
2018-02-05T07:41:19.120Z,972.02
2018-02-05T07:42:19.144Z,972.07
2018-02-05T07:43:19.182Z,972.10
2018-02-05T07:44:19.220Z,972.16
2018-02-05T07:45:19.259Z,972.11
2018-02-05T07:46:19.313Z,972.17
2018-02-05T07:47:19.338Z,972.16
2018-02-05T07:48:19.378Z,972.18
2018-02-05T07:49:19.423Z,972.16
2018-02-05T07:50:19.455Z,972.15
2018-02-05T07:51:19.513Z,972.22
2018-02-05T07:52:19.534Z,972.16
2018-02-05T07:53:19.572Z,972.15
2018-02-05T07:54:20.453Z,972.18
2018-02-05T07:55:19.653Z,972.20
2018-02-05T07:56:19.706Z,972.17
2018-02-05T07:57:19.732Z,972.21
2018-02-05T07:58:19.770Z,972.25
2018-02-05T07:59:19.810Z,972.24
2018-02-05T08:00:19.847Z,972.24
2018-02-05T08:01:19.902Z,972.27
2018-02-05T08:02:19.944Z,972.26
2018-02-05T08:03:19.966Z,972.26
2018-02-05T08:04:20.008Z,972.30
2018-02-05T08:05:20.053Z,972.30
2018-02-05T08:06:20.087Z,972.31
2018-02-05T08:07:20.148Z,972.35
2018-02-05T08:08:20.166Z,972.38
2018-02-05T08:09:20.203Z,972.34
2018-02-05T08:10:20.246Z,972.36
2018-02-05T08:11:20.291Z,972.35
2018-02-05T08:12:20.340Z,972.30
2018-02-05T08:13:20.370Z,972.27
2018-02-05T08:14:20.402Z,972.27
2018-02-05T08:15:20.440Z,972.25
2018-02-05T08:16:20.480Z,972.22
2018-02-05T08:17:20.546Z,972.13
2018-02-05T08:18:20.559Z,972.14
2018-02-05T08:19:20.600Z,972.12
2018-02-05T08:20:20.641Z,972.12
2018-02-05T08:21:20.679Z,972.12
2018-02-05T08:22:20.739Z,972.05
2018-02-05T08:23:21.184Z,972.10
2018-02-05T08:24:20.799Z,972.09
2018-02-05T08:25:20.840Z,972.10
2018-02-05T08:26:20.877Z,972.07
2018-02-05T08:27:20.921Z,972.11
2018-02-05T08:28:20.978Z,972.11
2018-02-05T08:29:21.002Z,972.13
2018-02-05T08:30:21.040Z,972.15
2018-02-05T08:31:21.078Z,972.16
2018-02-05T08:32:21.114Z,972.21
2018-02-05T08:33:21.176Z,972.14
2018-02-05T08:34:21.194Z,972.20
2018-02-05T08:35:21.240Z,972.18
2018-02-05T08:36:21.278Z,972.19
2018-02-05T08:37:21.314Z,972.23
2018-02-05T08:38:21.370Z,972.24
2018-02-05T08:39:21.399Z,972.24
2018-02-05T08:40:21.450Z,972.22
2018-02-05T08:41:21.481Z,972.25
2018-02-05T08:42:21.514Z,972.23
2018-02-05T08:43:21.555Z,972.22
2018-02-05T08:44:21.596Z,972.21
2018-02-05T08:45:21.652Z,972.21
2018-02-05T08:46:21.676Z,972.25
2018-02-05T08:47:21.717Z,972.18
2018-02-05T08:48:21.755Z,972.17
2018-02-05T08:49:21.841Z,972.20
2018-02-05T08:50:21.859Z,972.17
2018-02-05T08:51:21.876Z,972.17
2018-02-05T08:52:21.919Z,972.13
2018-02-05T08:53:21.958Z,972.14
2018-02-05T08:54:21.998Z,972.17
2018-02-05T08:55:22.054Z,972.18
2018-02-05T08:56:22.081Z,972.20
2018-02-05T08:57:22.124Z,972.23
2018-02-05T08:58:22.163Z,972.23
2018-02-05T08:59:22.203Z,972.23
2018-02-05T09:00:22.261Z,972.26
2018-02-05T09:01:22.287Z,972.28
2018-02-05T09:02:22.326Z,972.28
2018-02-05T09:03:22.368Z,972.34
2018-02-05T09:04:22.414Z,972.36
2018-02-05T09:05:22.468Z,972.38
2018-02-05T09:06:22.491Z,972.41
2018-02-05T09:07:22.533Z,972.40
2018-02-05T09:08:22.572Z,972.42
2018-02-05T09:09:22.615Z,972.48
2018-02-05T09:10:22.670Z,972.48
2018-02-05T09:11:22.692Z,972.42
2018-02-05T09:12:22.734Z,972.40
2018-02-05T09:13:22.781Z,972.45
2018-02-05T09:14:22.819Z,972.43
2018-02-05T09:15:22.875Z,972.38
2018-02-05T09:16:22.903Z,972.36
2018-02-05T09:17:22.962Z,972.31
2018-02-05T09:18:22.986Z,972.26
2018-02-05T09:19:23.028Z,972.32
2018-02-05T09:20:23.100Z,972.30
2018-02-05T09:21:23.114Z,972.27
2018-02-05T09:22:23.180Z,972.34
2018-02-05T09:23:23.200Z,972.33
2018-02-05T09:24:23.244Z,972.31
2018-02-05T09:25:23.290Z,972.29
2018-02-05T09:26:23.336Z,972.31
2018-02-05T09:27:23.396Z,972.27
2018-02-05T09:28:23.421Z,972.26
2018-02-05T09:29:23.462Z,972.28
2018-02-05T09:30:23.517Z,972.29
2018-02-05T09:31:23.552Z,972.28
2018-02-05T09:32:23.614Z,972.29
2018-02-05T09:33:23.641Z,972.29
2018-02-05T09:34:23.686Z,972.30
2018-02-05T09:35:23.754Z,972.28
2018-02-05T09:36:23.772Z,972.29
2018-02-05T09:37:23.871Z,972.31
2018-02-05T09:38:23.861Z,972.26
2018-02-05T09:39:23.905Z,972.35
2018-02-05T09:40:23.952Z,972.30
2018-02-05T09:41:24.000Z,972.31
2018-02-05T09:42:24.060Z,972.33
2018-02-05T09:43:24.080Z,972.32
2018-02-05T09:44:24.169Z,972.33
2018-02-05T09:45:24.172Z,972.35
2018-02-05T09:46:24.213Z,972.34
2018-02-05T09:47:24.272Z,972.32
2018-02-05T09:48:24.303Z,972.32
2018-02-05T09:49:24.342Z,972.30
2018-02-05T09:50:24.392Z,972.28
2018-02-05T09:51:24.431Z,972.31
2018-02-05T09:52:24.502Z,972.35
2018-02-05T09:53:24.517Z,972.36
2018-02-05T09:54:24.562Z,972.33
2018-02-05T09:55:24.610Z,972.39
2018-02-05T09:56:24.662Z,972.37
2018-02-05T09:57:24.691Z,972.36
2018-02-05T09:58:24.751Z,972.38
2018-02-05T09:59:24.784Z,972.41
2018-02-05T10:00:24.820Z,972.39
2018-02-05T10:01:24.864Z,972.42
2018-02-05T10:02:24.925Z,972.40
2018-02-05T10:03:24.952Z,972.41
2018-02-05T10:04:24.996Z,972.36
2018-02-05T10:05:25.086Z,972.37
2018-02-05T10:06:25.099Z,972.35
2018-02-05T10:07:25.144Z,972.34
2018-02-05T10:08:25.182Z,972.34
2018-02-05T10:09:25.223Z,972.36
2018-02-05T10:10:25.265Z,972.36
2018-02-05T10:11:25.322Z,972.35
2018-02-05T10:12:25.452Z,972.34
2018-02-05T10:13:25.393Z,972.30
2018-02-05T10:14:25.441Z,972.30
2018-02-05T10:15:25.483Z,972.28
2018-02-05T10:16:25.538Z,972.28
2018-02-05T10:17:25.587Z,972.27
2018-02-05T10:18:25.617Z,972.25
2018-02-05T10:19:25.663Z,972.25
2018-02-05T10:20:25.705Z,972.22
2018-02-05T10:21:25.746Z,972.24
2018-02-05T10:22:25.815Z,972.27
2018-02-05T10:23:25.837Z,972.27
2018-02-05T10:24:25.886Z,972.26
2018-02-05T10:25:25.928Z,972.24
2018-02-05T10:26:25.971Z,972.22
2018-02-05T10:27:26.036Z,972.25
2018-02-05T10:28:26.064Z,972.24
2018-02-05T10:29:26.105Z,972.22
2018-02-05T10:30:26.168Z,972.22
2018-02-05T10:31:26.195Z,972.21
2018-02-05T10:32:26.241Z,972.17
2018-02-05T10:33:26.309Z,972.16
2018-02-05T10:34:26.344Z,972.15
2018-02-05T10:35:26.394Z,972.16
2018-02-05T10:36:26.433Z,972.19
2018-02-05T10:37:26.478Z,972.18
2018-02-05T10:38:26.515Z,972.15
2018-02-05T10:39:26.557Z,972.23
2018-02-05T10:40:26.617Z,972.21
2018-02-05T10:41:26.645Z,972.18
2018-02-05T10:42:26.688Z,972.18
2018-02-05T10:43:26.735Z,972.20
2018-02-05T10:44:26.781Z,972.12
2018-02-05T10:45:26.848Z,972.14
2018-02-05T10:46:26.870Z,972.15
2018-02-05T10:47:26.921Z,972.15
2018-02-05T10:48:26.957Z,972.16
2018-02-05T10:49:27.026Z,972.14
2018-02-05T10:50:27.053Z,972.16
2018-02-05T10:51:27.094Z,972.14
2018-02-05T10:52:27.136Z,972.16
2018-02-05T10:53:27.181Z,972.17
2018-02-05T10:54:27.239Z,972.17
2018-02-05T10:55:27.270Z,972.21
2018-02-05T10:56:27.315Z,972.20
2018-02-05T10:57:27.359Z,972.20
2018-02-05T10:58:27.406Z,972.19
2018-02-05T10:59:27.466Z,972.21
2018-02-05T11:00:27.498Z,972.25
2018-02-05T11:01:27.543Z,972.22
2018-02-05T11:02:27.599Z,972.20
2018-02-05T11:03:27.629Z,972.20
2018-02-05T11:04:27.693Z,972.16
2018-02-05T11:05:27.720Z,972.14
2018-02-05T11:06:27.770Z,972.13
2018-02-05T11:07:27.809Z,972.13
2018-02-05T11:08:27.853Z,972.13
2018-02-05T11:09:27.920Z,972.11
2018-02-05T11:10:27.949Z,972.03
2018-02-05T11:11:27.993Z,972.05
2018-02-05T11:12:28.036Z,972.04
2018-02-05T11:13:28.092Z,972.03
2018-02-05T11:14:28.165Z,972.05
2018-02-05T11:15:28.171Z,972.02
2018-02-05T11:16:28.220Z,971.96
2018-02-05T11:17:28.263Z,971.95
2018-02-05T11:18:28.313Z,971.97
2018-02-05T11:19:28.373Z,971.95
2018-02-05T11:20:28.401Z,971.91
2018-02-05T11:21:28.449Z,971.97
2018-02-05T11:22:28.496Z,971.94
2018-02-05T11:23:28.541Z,971.89
2018-02-05T11:24:28.610Z,971.86
2018-02-05T11:25:28.650Z,971.84
2018-02-05T11:26:28.679Z,971.86
2018-02-05T11:27:28.726Z,971.80
2018-02-05T11:28:28.770Z,971.81
2018-02-05T11:29:28.819Z,971.79
2018-02-05T11:30:28.879Z,971.78
2018-02-05T11:31:28.906Z,971.79
2018-02-05T11:32:28.953Z,971.80
2018-02-05T11:33:28.998Z,971.82
2018-02-05T11:34:29.049Z,971.82
2018-02-05T11:35:29.122Z,971.80
2018-02-05T11:36:29.133Z,971.82
2018-02-05T11:37:29.180Z,971.84
2018-02-05T11:38:29.226Z,971.83
2018-02-05T11:39:29.270Z,971.76
2018-02-05T11:40:29.332Z,971.78
2018-02-05T11:41:29.359Z,971.78
2018-02-05T11:42:29.404Z,971.73
2018-02-05T11:43:29.450Z,971.74
2018-02-05T11:44:29.494Z,971.67
2018-02-05T11:45:29.555Z,971.68
2018-02-05T11:46:29.587Z,971.69
2018-02-05T11:47:29.627Z,971.63
2018-02-05T11:48:29.670Z,971.66
2018-02-05T11:49:29.715Z,971.63
2018-02-05T11:50:29.777Z,971.59
2018-02-05T11:51:29.803Z,971.53
2018-02-05T11:52:29.862Z,971.52
2018-02-05T11:53:29.892Z,971.52
2018-02-05T11:54:29.940Z,971.53
2018-02-05T11:55:29.985Z,971.57
2018-02-05T11:56:30.039Z,971.58
2018-02-05T11:57:30.069Z,971.62
2018-02-05T11:58:30.114Z,971.60
2018-02-05T11:59:30.174Z,971.60
2018-02-05T12:00:30.199Z,971.58
2018-02-05T12:01:30.246Z,971.57
2018-02-05T12:02:30.292Z,971.61
2018-02-05T12:03:30.333Z,971.61
2018-02-05T12:04:30.389Z,971.58
2018-02-05T12:05:30.420Z,971.66
2018-02-05T12:06:30.481Z,971.64
2018-02-05T12:07:30.504Z,971.66
2018-02-05T12:08:30.550Z,971.69
2018-02-05T12:09:30.594Z,971.67
2018-02-05T12:10:30.645Z,971.67
2018-02-05T12:11:30.696Z,971.62
2018-02-05T12:12:30.730Z,971.63
2018-02-05T12:13:30.770Z,971.63
2018-02-05T12:14:30.816Z,971.64
2018-02-05T12:15:30.856Z,971.66
2018-02-05T12:16:30.915Z,971.65
2018-02-05T12:17:30.966Z,971.67
2018-02-05T12:18:30.989Z,971.68
2018-02-05T12:19:31.033Z,971.67
2018-02-05T12:20:31.075Z,971.69
2018-02-05T12:21:31.129Z,971.67
2018-02-05T12:22:31.182Z,971.69
2018-02-05T12:23:31.208Z,971.68
2018-02-05T12:24:31.253Z,971.66
2018-02-05T12:25:31.296Z,971.73
2018-02-05T12:26:31.338Z,971.71
2018-02-05T12:27:31.400Z,971.66
2018-02-05T12:28:31.464Z,971.68